Wood River, Nebraska
Current Conditions -  °F | °C
As of 7:53 PM on Friday 19 Dec 2014 (Local Time) from KHSI Reporting Station
Haze Haze  
Wind Chill: 26°   Ceiling: 200
Heat Index: 33°   Visibility: 0.75mi
Dew Point: 32°   Wind: 8mph
Humidity: 96%   Direction: 170°S
Pressure: 30.05"   Gusts: NA
Location:  40.82°N, 98.6°W
Report Text: KHSI 200153Z AUTO 17007KT 3/4SM BR VV002 01/00 A3005 RMK AO2 SLP195 T00060000
Loading
Personal Weather Stations






























Interactive Weather Map New forecast layout! Learn more

10-Day Weather Forecast

Advertisements
Track Severe Weather on mobile